Главная страница
METAR-TAF:

METAR-TAF

Аэропорты :

Днепропетровск, Украина

широта: 48-21-26N, долгота: 035-06-02E, высота над уровнем моря: 147 м

Текущие метеонаблюдения

Эта сводка был подготовлена 15 минут назад, в 02:30 UTC
Ветер 6 Узел от северный
Температура 17°C
Влажность 82%
Давление 1017 hPa
Видимость 10 км и более
Нет облачности ниже 1500 м, и нет кучево-дождевой облачности

METAR: UKDD 210230Z 36003MPS CAVOK 17/14 Q1017 R26/090070 NOSIG

Время: 05:45 (02:45 UTC)

Прогноз

Эта сводка был подготовлена 3 часа и 42 минут назад, в 23:03 UTC
Прогноз действительный с 21-го 00 UTC до 21-го 24 UTC
Ветер 6 Узел от северный
Видимость 10 км и более
Нет облачности ниже 1500 м, и нет кучево-дождевой облачности
изменения
С 21-го 15 UTC до 21-го 17 UTC
Ветер 4 Узел переменных направлений

TAF: UKDD 202303Z 2100/2124 36003MPS CAVOK TX31/2112Z TN18/2102Z BECMG 2115/2117 VRB02MPS

Метеонаблюдения и прогнозы для более 4000 аэропортов (сводки METAR и TAF).

Имеющиеся станции представлены на карте желтыми и красными точками.

Чтобы увидеть название станции, наведите на нее мышь.

Затем щелкните, чтобы увидеть метеонаблюдения и метеопрогнозы.

Управление картой: чтобы увеличить масштаб, щелкните зеленые кнопки с черным крестиком; чтобы уменьшить масштаб, щелкните зеленую кнопку с тире; для просмотра соседних карт щелкайте зеленые стрелки.


METAR-TAF: